Dafter, MI (49724)

12:09 AM EST on February 23, 2017 (GMT -0500)
M-28 / Mackinac Trail | | Change Station

Elev 676 ft 46.37 °N, 84.41 °W | Updated 38 seconds ago

Rain
Rain
35.7 °F
Feels Like 36 °F
N
0.0
Wind Variable Wind from ENE

Today
High -- | Low -- °F
--% Chance of Precip.
Yesterday
High -- | Low -- °F
Precip. -- in
Pressure 29.63 in
Visibility 0.5 miles
Clouds Scattered Clouds 300 ft
Mostly Cloudy 1800 ft
Overcast 2400 ft
Windchill 36 °F
Dew Point 35 °F
Humidity 96%
Rainfall 0.00 in
Snow Depth Not available.
7:27 AM 6:15 PM
Waning Crescent, 13% visible
METAR KCIU 230456Z AUTO 00000KT 1/2SM -RA FG SCT003 BKN018 OVC024 04/04 A2954 RMK AO2 SLP032 P0008 T00440044 401000006
Pressure 29.63 in
Visibility 0.5 miles
Clouds Scattered Clouds 300 ft
Mostly Cloudy 1800 ft
Overcast 2400 ft
Windchill 36 °F
Dew Point 35 °F
Humidity 96%
Rainfall 0.00 in
Snow Depth Not available.
7:27 AM 6:15 PM
Waning Crescent, 13% visible
METAR KCIU 230456Z AUTO 00000KT 1/2SM -RA FG SCT003 BKN018 OVC024 04/04 A2954 RMK AO2 SLP032 P0008 T00440044 401000006

Get Your Daily Forecast Email!

Thanks for signing up!

Be on the lookout for a verification email in your inbox.

You'll start receiving the daily forecast at 8 AM.

×

10-Day Weather Forecast

Almanac

Astronomy

Feb. 23, 2017 Rise Set
Actual Time
Civil Twilight
Nautical Twilight
Astronomical Twilight
Moon
Length of Visible Light
Length of Day
Tomorrow will be .
, % of the Moon is Illuminated

Today's Extremes

State Highs State Lows

Community

WunderPhotos

Upload Photos

1,962,540 photos uploaded!

WunderBlog® & News

Nearby

Air Quality

  Air Quality AQ Index Pollutant
Not available.

Snow Depth

Station Depth Elevation

Earthquake Activity

City Distance Mag. Time & Date
Minimum magnitude displayed is 2.5.

Coastal Water Temperatures

Place Temperature

Stations

Nearby Weather Stations

Station Location Temp. Windchill Dew Point Humidity Wind Precip. Elev Updated Type
                   

Watches & Warnings

There are currently no watches in effect.